Terminal Aerodrome Forecast
Issued by NWS

Home | Current Version | Previous Version | Text Only | Print | Product List | Glossary On
Versions: 1 2 3 4 5 6 7 8 9 10 11 12
000
FTAK31 PAJN 250500
TAFASI
TAF
PASI 250538Z 2506/2606 VRB04KT P6SM SCT100
     FM250900 VRB03KT P6SM SCT100
     FM251800 14008KT P6SM BKN100
     FM252200 13010KT P6SM VCSH SCT070 BKN100=

USA.gov is the U.S. government's official web portal to all federal, state and local government web resources and services.